createdAt,value
2022-12-11T00:01:23.003Z,101119.00
2022-12-11T00:03:52.169Z,101121.00
2022-12-11T00:06:31.332Z,101118.00
2022-12-11T00:09:02.784Z,101117.00
2022-12-11T00:11:31.563Z,101117.00
2022-12-11T00:14:00.276Z,101125.00
2022-12-11T00:16:29.132Z,101116.00
2022-12-11T00:18:57.941Z,101118.00
2022-12-11T00:21:28.353Z,101120.00
2022-12-11T00:23:57.464Z,101115.00
2022-12-11T00:26:26.335Z,101112.00
2022-12-11T00:28:58.482Z,101125.00
2022-12-11T00:31:27.366Z,101125.00
2022-12-11T00:33:56.763Z,101121.00
2022-12-11T00:36:28.923Z,101130.00
2022-12-11T00:38:58.038Z,101132.00
2022-12-11T00:41:27.092Z,101128.00
2022-12-11T00:43:56.266Z,101130.00
2022-12-11T00:46:25.095Z,101126.00
2022-12-11T00:48:54.081Z,101124.00
2022-12-11T00:51:23.182Z,101124.00
2022-12-11T00:53:54.075Z,101125.00
2022-12-11T00:56:24.709Z,101120.00
2022-12-11T00:58:53.586Z,101121.00
2022-12-11T01:01:25.357Z,101118.00
2022-12-11T01:03:55.227Z,101114.00
2022-12-11T01:06:26.704Z,101110.00
2022-12-11T01:09:12.628Z,101115.00
2022-12-11T01:11:42.868Z,101120.00
2022-12-11T01:14:15.588Z,101116.00
2022-12-11T01:16:44.755Z,101126.00
2022-12-11T01:19:13.667Z,101125.00
2022-12-11T01:21:42.692Z,101133.00
2022-12-11T01:24:12.833Z,101125.00
2022-12-11T01:26:41.712Z,101125.00
2022-12-11T01:29:10.525Z,101128.00
2022-12-11T01:31:40.017Z,101130.00
2022-12-11T01:34:08.853Z,101121.00
2022-12-11T01:36:37.701Z,101138.00
2022-12-11T01:39:06.551Z,101125.00
2022-12-11T01:41:36.733Z,101129.00
2022-12-11T01:44:09.906Z,101124.00
2022-12-11T01:46:39.418Z,101124.00
2022-12-11T01:49:13.081Z,101131.00
2022-12-11T01:51:50.494Z,101135.00
2022-12-11T01:54:24.148Z,101138.00
2022-12-11T01:56:59.277Z,101120.00
2022-12-11T01:59:34.191Z,101126.00
2022-12-11T02:02:09.129Z,101116.00
2022-12-11T02:04:41.544Z,101122.00
2022-12-11T02:07:12.206Z,101133.00
2022-12-11T02:09:46.392Z,101132.00
2022-12-11T02:12:27.871Z,101126.00
2022-12-11T02:15:13.674Z,101126.00
2022-12-11T02:17:49.867Z,101135.00
2022-12-11T02:20:29.557Z,101127.00
2022-12-11T02:23:34.624Z,101128.00
2022-12-11T02:26:21.809Z,101137.00
2022-12-11T02:28:58.026Z,101133.00
2022-12-11T02:31:37.586Z,101136.00
2022-12-11T02:34:14.421Z,101137.00
2022-12-11T02:36:49.966Z,101135.00
2022-12-11T02:39:22.596Z,101139.00
2022-12-11T02:41:53.338Z,101134.00
2022-12-11T02:44:28.735Z,101131.00
2022-12-11T02:46:59.551Z,101135.00
2022-12-11T02:49:30.310Z,101128.00
2022-12-11T02:52:03.599Z,101131.00
2022-12-11T02:54:36.890Z,101134.00
2022-12-11T02:57:12.880Z,101135.00
2022-12-11T02:59:46.533Z,101138.00
2022-12-11T03:02:18.937Z,101133.00
2022-12-11T03:04:49.894Z,101139.00
2022-12-11T03:07:25.148Z,101135.00
2022-12-11T03:09:54.670Z,101133.00
2022-12-11T03:12:29.206Z,101141.00
2022-12-11T03:15:05.409Z,101138.00
2022-12-11T03:17:45.779Z,101141.00
2022-12-11T03:20:26.168Z,101127.00
2022-12-11T03:23:05.832Z,101139.00
2022-12-11T03:25:45.880Z,101135.00
2022-12-11T03:28:21.331Z,101142.00
2022-12-11T03:30:55.681Z,101130.00
2022-12-11T03:33:32.243Z,101139.00
2022-12-11T03:36:07.181Z,101141.00
2022-12-11T03:38:42.837Z,101144.00
2022-12-11T03:41:14.996Z,101142.00
2022-12-11T03:43:44.374Z,101142.00
2022-12-11T03:46:17.551Z,101144.00
2022-12-11T03:48:50.063Z,101138.00
2022-12-11T03:51:19.719Z,101140.00
2022-12-11T03:53:49.998Z,101130.00
2022-12-11T03:56:22.246Z,101137.00
2022-12-11T03:58:51.152Z,101130.00
2022-12-11T04:01:21.451Z,101119.00
2022-12-11T04:03:50.431Z,101129.00
2022-12-11T04:06:19.212Z,101133.00
2022-12-11T04:08:47.974Z,101121.00
2022-12-11T04:11:33.907Z,101132.00
2022-12-11T04:14:20.328Z,101127.00
2022-12-11T04:16:50.642Z,101124.00
2022-12-11T04:19:37.705Z,101125.00
2022-12-11T04:22:26.568Z,101128.00
2022-12-11T04:24:55.518Z,101129.00
2022-12-11T04:27:42.112Z,101123.00
2022-12-11T04:30:18.531Z,101131.00
2022-12-11T04:32:49.326Z,101140.00
2022-12-11T04:35:18.743Z,101134.00
2022-12-11T04:37:48.339Z,101142.00
2022-12-11T04:40:20.247Z,101137.00
2022-12-11T04:42:49.135Z,101139.00
2022-12-11T04:45:18.119Z,101144.00
2022-12-11T04:47:48.529Z,101144.00
2022-12-11T04:50:20.608Z,101146.00
2022-12-11T04:52:49.546Z,101153.00
2022-12-11T04:55:18.809Z,101149.00
2022-12-11T04:57:47.750Z,101152.00
2022-12-11T05:00:19.708Z,101146.00
2022-12-11T05:02:51.327Z,101150.00
2022-12-11T05:05:21.878Z,101154.00
2022-12-11T05:07:50.722Z,101155.00
2022-12-11T05:10:19.942Z,101150.00
2022-12-11T05:12:48.649Z,101165.00
2022-12-11T05:15:17.473Z,101158.00
2022-12-11T05:17:46.260Z,101162.00
2022-12-11T05:20:16.960Z,101160.00
2022-12-11T05:22:46.290Z,101161.00
2022-12-11T05:25:15.125Z,101164.00
2022-12-11T05:27:44.047Z,101166.00
2022-12-11T05:30:13.465Z,101171.00
2022-12-11T05:32:42.481Z,101160.00
2022-12-11T05:35:11.785Z,101175.00
2022-12-11T05:37:42.222Z,101174.00
2022-12-11T05:40:13.211Z,101175.00
2022-12-11T05:42:42.718Z,101190.00
2022-12-11T05:45:12.997Z,101188.00
2022-12-11T05:47:44.651Z,101190.00
2022-12-11T05:50:13.483Z,101185.00
2022-12-11T05:52:44.384Z,101185.00
2022-12-11T05:55:13.450Z,101186.00
2022-12-11T05:57:42.448Z,101193.00
2022-12-11T06:00:14.176Z,101194.00
2022-12-11T06:02:43.203Z,101195.00
2022-12-11T06:05:12.208Z,101190.00
2022-12-11T06:07:42.560Z,101191.00
2022-12-11T06:10:11.936Z,101190.00
2022-12-11T06:12:41.423Z,101186.00
2022-12-11T06:15:14.072Z,101201.00
2022-12-11T06:17:42.859Z,101198.00
2022-12-11T06:20:12.731Z,101205.00
2022-12-11T06:22:42.973Z,101200.00
2022-12-11T06:25:11.938Z,101201.00
2022-12-11T06:27:41.586Z,101212.00
2022-12-11T06:30:12.521Z,101211.00
2022-12-11T06:32:42.209Z,101212.00
2022-12-11T06:35:11.935Z,101216.00
2022-12-11T06:37:42.601Z,101214.00
2022-12-11T06:40:12.999Z,101219.00
2022-12-11T06:42:41.885Z,101226.00
2022-12-11T06:45:12.372Z,101220.00
2022-12-11T06:47:41.556Z,101228.00
2022-12-11T06:50:11.753Z,101239.00
2022-12-11T06:52:40.491Z,101239.00
2022-12-11T06:55:11.420Z,101245.00
2022-12-11T06:57:41.929Z,101239.00
2022-12-11T07:00:12.741Z,101230.00
2022-12-11T07:02:41.711Z,101225.00
2022-12-11T07:05:11.367Z,101230.00
2022-12-11T07:07:43.131Z,101241.00
2022-12-11T07:10:13.690Z,101237.00
2022-12-11T07:12:44.248Z,101244.00
2022-12-11T07:15:13.299Z,101238.00
2022-12-11T07:17:42.553Z,101237.00
2022-12-11T07:20:12.255Z,101241.00
2022-12-11T07:22:46.278Z,101239.00
2022-12-11T07:25:17.258Z,101246.00
2022-12-11T07:27:46.053Z,101246.00
2022-12-11T07:30:15.678Z,101240.00
2022-12-11T07:32:44.736Z,101239.00
2022-12-11T07:35:13.829Z,101233.00
2022-12-11T07:37:42.938Z,101225.00
2022-12-11T07:40:13.605Z,101232.00
2022-12-11T07:42:46.242Z,101235.00
2022-12-11T07:45:15.617Z,101242.00
2022-12-11T07:47:44.444Z,101229.00
2022-12-11T07:50:13.259Z,101244.00
2022-12-11T07:52:41.991Z,101238.00
2022-12-11T07:55:11.766Z,101238.00
2022-12-11T07:57:41.281Z,101250.00
2022-12-11T08:00:13.229Z,101247.00
2022-12-11T08:02:42.020Z,101250.00
2022-12-11T08:05:13.252Z,101250.00
2022-12-11T08:07:43.957Z,101257.00
2022-12-11T08:10:13.177Z,101257.00
2022-12-11T08:12:42.631Z,101260.00
2022-12-11T08:15:13.932Z,101262.00
2022-12-11T08:17:43.106Z,101265.00
2022-12-11T08:20:12.429Z,101266.00
2022-12-11T08:22:41.122Z,101278.00
2022-12-11T08:25:10.964Z,101274.00
2022-12-11T08:27:39.847Z,101274.00
2022-12-11T08:30:12.787Z,101283.00
2022-12-11T08:32:41.605Z,101285.00
2022-12-11T08:35:12.108Z,101295.00
2022-12-11T08:37:41.072Z,101295.00
2022-12-11T08:40:13.500Z,101300.00
2022-12-11T08:42:42.316Z,101301.00
2022-12-11T08:45:13.595Z,101313.00
2022-12-11T08:47:42.547Z,101316.00
2022-12-11T08:50:12.230Z,101306.00
2022-12-11T08:52:41.167Z,101316.00
2022-12-11T08:55:11.629Z,101321.00
2022-12-11T08:57:41.597Z,101327.00
2022-12-11T09:00:16.481Z,101324.00
2022-12-11T09:02:45.385Z,101326.00
2022-12-11T09:05:14.268Z,101315.00
2022-12-11T09:07:43.067Z,101313.00
2022-12-11T09:10:12.293Z,101332.00
2022-12-11T09:12:41.262Z,101321.00
2022-12-11T09:15:11.014Z,101321.00
2022-12-11T09:17:41.237Z,101322.00
2022-12-11T09:20:11.009Z,101315.00
2022-12-11T09:22:39.904Z,101317.00
2022-12-11T09:25:10.002Z,101323.00
2022-12-11T09:27:39.024Z,101323.00
2022-12-11T09:30:09.939Z,101325.00
2022-12-11T09:32:40.139Z,101325.00
2022-12-11T09:35:11.513Z,101315.00
2022-12-11T09:37:40.721Z,101316.00
2022-12-11T09:40:16.183Z,101317.00
2022-12-11T09:42:55.806Z,101321.00
2022-12-11T09:45:27.949Z,101317.00
2022-12-11T09:47:58.336Z,101326.00
2022-12-11T09:50:31.344Z,101326.00
2022-12-11T09:53:08.615Z,101330.00
2022-12-11T09:55:55.546Z,101336.00
2022-12-11T09:58:34.470Z,101327.00
2022-12-11T10:01:09.750Z,101321.00
2022-12-11T10:04:18.263Z,101328.00
2022-12-11T10:07:05.275Z,101314.00
2022-12-11T10:09:50.800Z,101312.00
2022-12-11T10:12:38.424Z,101324.00
2022-12-11T10:15:42.482Z,101324.00
2022-12-11T10:18:17.679Z,101320.00
2022-12-11T10:20:51.266Z,101322.00
2022-12-11T10:23:28.953Z,101321.00
2022-12-11T10:26:09.143Z,101322.00
2022-12-11T10:28:38.622Z,101319.00
2022-12-11T10:31:19.543Z,101312.00
2022-12-11T10:34:14.363Z,101304.00
2022-12-11T10:36:45.620Z,101304.00
2022-12-11T10:39:19.434Z,101310.00
2022-12-11T10:41:52.218Z,101307.00
2022-12-11T10:44:23.587Z,101304.00
2022-12-11T10:47:06.581Z,101311.00
2022-12-11T10:49:37.953Z,101295.00
2022-12-11T10:52:24.853Z,101300.00
2022-12-11T10:55:03.422Z,101301.00
2022-12-11T10:57:37.151Z,101293.00
2022-12-11T11:00:08.272Z,101306.00
2022-12-11T11:02:40.441Z,101317.00
2022-12-11T11:05:19.214Z,101301.00
2022-12-11T11:08:19.373Z,101316.00
2022-12-11T11:10:57.479Z,101310.00
2022-12-11T11:13:29.390Z,101310.00
2022-12-11T11:16:03.988Z,101324.00
2022-12-11T11:18:34.081Z,101313.00
2022-12-11T11:21:09.005Z,101318.00
2022-12-11T11:23:46.221Z,101326.00
2022-12-11T11:26:16.493Z,101319.00
2022-12-11T11:28:53.513Z,101318.00
2022-12-11T11:31:32.618Z,101323.00
2022-12-11T11:34:05.320Z,101313.00
2022-12-11T11:36:38.010Z,101312.00
2022-12-11T11:39:28.103Z,101326.00
2022-12-11T11:42:06.119Z,101327.00
2022-12-11T11:44:40.915Z,101319.00
2022-12-11T11:47:18.489Z,101326.00
2022-12-11T11:49:59.683Z,101326.00
2022-12-11T11:52:38.021Z,101317.00
2022-12-11T11:55:21.758Z,101314.00
2022-12-11T11:58:02.278Z,101316.00
2022-12-11T12:00:34.089Z,101325.00
2022-12-11T12:03:11.065Z,101318.00
2022-12-11T12:05:56.775Z,101318.00
2022-12-11T12:08:54.576Z,101314.00
2022-12-11T12:11:37.693Z,101322.00
2022-12-11T12:14:50.475Z,101311.00
2022-12-11T12:17:26.472Z,101314.00
2022-12-11T12:20:11.917Z,101315.00
2022-12-11T12:23:05.112Z,101325.00
2022-12-11T12:25:42.085Z,101317.00
2022-12-11T12:28:31.697Z,101315.00
2022-12-11T12:31:18.575Z,101324.00
2022-12-11T12:34:00.142Z,101325.00
2022-12-11T12:36:41.359Z,101318.00
2022-12-11T12:39:21.705Z,101323.00
2022-12-11T12:42:07.443Z,101323.00
2022-12-11T12:44:52.130Z,101333.00
2022-12-11T12:47:22.245Z,101334.00
2022-12-11T12:49:54.416Z,101331.00
2022-12-11T12:52:32.076Z,101337.00
2022-12-11T12:55:22.706Z,101335.00
2022-12-11T12:57:55.811Z,101332.00
2022-12-11T13:00:36.153Z,101327.00
2022-12-11T13:03:18.364Z,101308.00
2022-12-11T13:06:00.534Z,101326.00
2022-12-11T13:08:35.913Z,101318.00
2022-12-11T13:11:09.203Z,101321.00
2022-12-11T13:13:41.854Z,101344.00
2022-12-11T13:16:34.732Z,101334.00
2022-12-11T13:19:03.781Z,101338.00
2022-12-11T13:21:35.747Z,101338.00
2022-12-11T13:24:27.421Z,101336.00
2022-12-11T13:26:57.074Z,101332.00
2022-12-11T13:29:35.821Z,101337.00
2022-12-11T13:32:24.251Z,101331.00
2022-12-11T13:34:58.081Z,101330.00
2022-12-11T13:37:33.226Z,101328.00
2022-12-11T13:40:09.232Z,101326.00
2022-12-11T13:42:49.645Z,101320.00
2022-12-11T13:45:28.070Z,101327.00
2022-12-11T13:48:00.245Z,101316.00
2022-12-11T13:50:34.549Z,101318.00
2022-12-11T13:53:05.036Z,101306.00
2022-12-11T13:55:35.812Z,101307.00
2022-12-11T13:58:04.618Z,101307.00
2022-12-11T14:00:34.406Z,101303.00
2022-12-11T14:03:08.495Z,101311.00
2022-12-11T14:05:37.791Z,101310.00
2022-12-11T14:08:11.338Z,101308.00
2022-12-11T14:10:41.628Z,101311.00
2022-12-11T14:13:23.886Z,101318.00
2022-12-11T14:15:53.967Z,101305.00
2022-12-11T14:18:29.139Z,101311.00
2022-12-11T14:21:00.856Z,101312.00
2022-12-11T14:23:32.749Z,101303.00
2022-12-11T14:26:05.018Z,101319.00
2022-12-11T14:28:43.466Z,101309.00
2022-12-11T14:31:19.450Z,101317.00
2022-12-11T14:33:54.350Z,101306.00
2022-12-11T14:36:24.827Z,101288.00
2022-12-11T14:39:01.574Z,101295.00
2022-12-11T14:41:44.113Z,101282.00
2022-12-11T14:44:18.678Z,101286.00
2022-12-11T14:46:51.537Z,101291.00
2022-12-11T14:49:32.806Z,101293.00
2022-12-11T14:52:02.785Z,101281.00
2022-12-11T14:54:38.761Z,101277.00
2022-12-11T14:57:09.617Z,101271.00
2022-12-11T14:59:47.223Z,101269.00
2022-12-11T15:02:31.165Z,101270.00
2022-12-11T15:05:23.624Z,101275.00
2022-12-11T15:07:59.763Z,101263.00
2022-12-11T15:10:37.658Z,101238.00
2022-12-11T15:13:08.824Z,101271.00
2022-12-11T15:15:46.660Z,101263.00
2022-12-11T15:18:25.567Z,101257.00
2022-12-11T15:21:01.441Z,101268.00
2022-12-11T15:23:31.374Z,101249.00
2022-12-11T15:26:03.974Z,101249.00
2022-12-11T15:28:36.551Z,101262.00
2022-12-11T15:31:09.211Z,101254.00
2022-12-11T15:33:48.153Z,101263.00
2022-12-11T15:36:27.811Z,101257.00
2022-12-11T15:38:56.545Z,101264.00
2022-12-11T15:41:27.000Z,101248.00
2022-12-11T15:43:59.993Z,101260.00
2022-12-11T15:46:29.283Z,101265.00
2022-12-11T15:48:59.091Z,101258.00
2022-12-11T15:51:29.254Z,101255.00
2022-12-11T15:53:58.160Z,101246.00
2022-12-11T15:56:27.456Z,101229.00
2022-12-11T15:59:01.530Z,101239.00
2022-12-11T16:01:30.299Z,101232.00
2022-12-11T16:04:03.333Z,101231.00
2022-12-11T16:06:35.749Z,101220.00
2022-12-11T16:09:05.749Z,101215.00
2022-12-11T16:11:34.567Z,101221.00
2022-12-11T16:14:04.563Z,101216.00
2022-12-11T16:16:37.488Z,101211.00
2022-12-11T16:19:06.338Z,101206.00
2022-12-11T16:21:36.526Z,101208.00
2022-12-11T16:24:05.872Z,101202.00
2022-12-11T16:26:34.803Z,101194.00
2022-12-11T16:29:03.776Z,101200.00
2022-12-11T16:31:33.657Z,101195.00
2022-12-11T16:34:02.604Z,101195.00
2022-12-11T16:36:31.458Z,101183.00
2022-12-11T16:39:01.867Z,101180.00
2022-12-11T16:41:30.631Z,101172.00
2022-12-11T16:44:02.234Z,101174.00
2022-12-11T16:46:31.277Z,101179.00
2022-12-11T16:49:00.198Z,101178.00
2022-12-11T16:51:29.178Z,101171.00
2022-12-11T16:53:58.301Z,101175.00
2022-12-11T16:56:28.657Z,101173.00
2022-12-11T16:58:57.984Z,101164.00
2022-12-11T17:01:27.391Z,101175.00
2022-12-11T17:03:56.242Z,101158.00
2022-12-11T17:06:25.213Z,101167.00
2022-12-11T17:08:54.393Z,101159.00
2022-12-11T17:11:26.307Z,101162.00
2022-12-11T17:13:58.225Z,101160.00
2022-12-11T17:16:30.522Z,101152.00
2022-12-11T17:18:59.842Z,101161.00
2022-12-11T17:21:28.788Z,101159.00
2022-12-11T17:23:57.518Z,101147.00
2022-12-11T17:26:28.193Z,101162.00
2022-12-11T17:28:59.687Z,101152.00
2022-12-11T17:31:28.635Z,101148.00
2022-12-11T17:34:00.706Z,101147.00
2022-12-11T17:36:29.750Z,101154.00
2022-12-11T17:38:58.545Z,101154.00
2022-12-11T17:41:27.590Z,101143.00
2022-12-11T17:43:58.598Z,101141.00
2022-12-11T17:46:28.094Z,101141.00
2022-12-11T17:49:00.104Z,101144.00
2022-12-11T17:51:29.027Z,101143.00
2022-12-11T17:53:58.522Z,101143.00
2022-12-11T17:56:28.080Z,101131.00
2022-12-11T17:58:59.472Z,101138.00
2022-12-11T18:01:28.679Z,101126.00
2022-12-11T18:04:00.502Z,101115.00
2022-12-11T18:06:31.006Z,101119.00
2022-12-11T18:09:00.091Z,101118.00
2022-12-11T18:11:28.977Z,101115.00
2022-12-11T18:13:59.820Z,101123.00
2022-12-11T18:16:33.027Z,101126.00
2022-12-11T18:19:02.454Z,101134.00
2022-12-11T18:21:34.599Z,101123.00
2022-12-11T18:24:04.456Z,101117.00
2022-12-11T18:26:33.396Z,101127.00
2022-12-11T18:29:07.469Z,101132.00
2022-12-11T18:31:42.137Z,101133.00
2022-12-11T18:34:12.440Z,101124.00
2022-12-11T18:36:42.159Z,101117.00
2022-12-11T18:39:11.991Z,101129.00
2022-12-11T18:41:40.736Z,101122.00
2022-12-11T18:44:11.140Z,101115.00
2022-12-11T18:46:40.594Z,101127.00
2022-12-11T18:49:09.442Z,101122.00
2022-12-11T18:51:38.380Z,101108.00
2022-12-11T18:54:07.326Z,101103.00
2022-12-11T18:56:36.644Z,101101.00
2022-12-11T18:59:05.824Z,101091.00
2022-12-11T19:01:36.876Z,101091.00
2022-12-11T19:04:10.722Z,101077.00
2022-12-11T19:06:40.211Z,101076.00
2022-12-11T19:09:10.411Z,101077.00
2022-12-11T19:11:43.643Z,101078.00
2022-12-11T19:14:13.610Z,101062.00
2022-12-11T19:16:45.796Z,101072.00
2022-12-11T19:19:16.693Z,101055.00
2022-12-11T19:21:46.707Z,101050.00
2022-12-11T19:24:19.502Z,101044.00
2022-12-11T19:26:49.330Z,101044.00
2022-12-11T19:29:23.300Z,101034.00
2022-12-11T19:31:54.076Z,101043.00
2022-12-11T19:34:23.369Z,101026.00
2022-12-11T19:36:52.283Z,101033.00
2022-12-11T19:39:22.163Z,101016.00
2022-12-11T19:41:51.278Z,101023.00
2022-12-11T19:44:20.019Z,101014.00
2022-12-11T19:46:48.890Z,101013.00
2022-12-11T19:49:19.186Z,101019.00
2022-12-11T19:51:47.938Z,101011.00
2022-12-11T19:54:18.986Z,101012.00
2022-12-11T19:56:48.046Z,101012.00
2022-12-11T19:59:19.218Z,101003.00
2022-12-11T20:01:49.482Z,100994.00
2022-12-11T20:04:20.262Z,100995.00
2022-12-11T20:06:49.721Z,100991.00
2022-12-11T20:09:19.284Z,100989.00
2022-12-11T20:11:48.702Z,100986.00
2022-12-11T20:14:24.833Z,100975.00
2022-12-11T20:17:13.884Z,100969.00
2022-12-11T20:19:45.327Z,100963.00
2022-12-11T20:22:14.732Z,100948.00
2022-12-11T20:24:43.587Z,100941.00
2022-12-11T20:27:12.757Z,100942.00
2022-12-11T20:29:41.668Z,100946.00
2022-12-11T20:32:12.475Z,100940.00
2022-12-11T20:34:41.364Z,100932.00
2022-12-11T20:37:11.622Z,100905.00
2022-12-11T20:39:40.588Z,100934.00
2022-12-11T20:42:11.884Z,100946.00
2022-12-11T20:44:44.142Z,100927.00
2022-12-11T20:47:19.795Z,100914.00
2022-12-11T20:49:49.655Z,100920.00
2022-12-11T20:52:20.425Z,100914.00
2022-12-11T20:54:49.230Z,100912.00
2022-12-11T20:57:18.017Z,100891.00
2022-12-11T20:59:47.400Z,100898.00
2022-12-11T21:02:16.134Z,100900.00
2022-12-11T21:04:44.951Z,100909.00
2022-12-11T21:07:13.843Z,100900.00
2022-12-11T21:09:44.063Z,100892.00
2022-12-11T21:12:12.772Z,100890.00
2022-12-11T21:14:42.740Z,100889.00
2022-12-11T21:17:11.470Z,100878.00
2022-12-11T21:19:40.891Z,100886.00
2022-12-11T21:22:09.787Z,100882.00
2022-12-11T21:24:39.063Z,100836.00
2022-12-11T21:27:09.386Z,100864.00
2022-12-11T21:29:38.344Z,100875.00
2022-12-11T21:32:07.732Z,100853.00
2022-12-11T21:34:37.874Z,100857.00
2022-12-11T21:37:07.559Z,100852.00
2022-12-11T21:39:39.263Z,100824.00
2022-12-11T21:42:10.292Z,100836.00
2022-12-11T21:47:28.869Z,100827.00
2022-12-11T21:49:57.504Z,100831.00
2022-12-11T21:52:26.284Z,100827.00
2022-12-11T21:54:54.953Z,100816.00
2022-12-11T21:57:26.857Z,100808.00
2022-12-11T21:59:55.818Z,100818.00
2022-12-11T22:02:24.738Z,100807.00
2022-12-11T22:04:53.708Z,100773.00
2022-12-11T22:07:24.001Z,100797.00
2022-12-11T22:09:52.711Z,100797.00
2022-12-11T22:12:28.926Z,100798.00
2022-12-11T22:14:59.394Z,100794.00
2022-12-11T22:17:29.222Z,100794.00
2022-12-11T22:19:57.940Z,100785.00
2022-12-11T22:22:26.964Z,100794.00
2022-12-11T22:24:56.484Z,100790.00
2022-12-11T22:27:26.725Z,100794.00
2022-12-11T22:29:56.093Z,100781.00
2022-12-11T22:32:25.279Z,100781.00
2022-12-11T22:34:54.235Z,100773.00
2022-12-11T22:37:23.054Z,100771.00
2022-12-11T22:39:52.077Z,100781.00
2022-12-11T22:42:20.977Z,100784.00
2022-12-11T22:44:51.081Z,100783.00
2022-12-11T22:47:19.977Z,100790.00
2022-12-11T22:49:48.668Z,100782.00
2022-12-11T22:52:17.465Z,100789.00
2022-12-11T22:54:47.205Z,100781.00
2022-12-11T22:57:16.129Z,100763.00
2022-12-11T22:59:44.828Z,100766.00
2022-12-11T23:02:15.448Z,100762.00
2022-12-11T23:04:47.560Z,100760.00
2022-12-11T23:07:17.102Z,100763.00
2022-12-11T23:09:50.464Z,100766.00
2022-12-11T23:12:19.861Z,100754.00
2022-12-11T23:14:49.363Z,100754.00
2022-12-11T23:17:21.266Z,100766.00
2022-12-11T23:19:50.097Z,100755.00
2022-12-11T23:22:19.442Z,100757.00
2022-12-11T23:24:48.146Z,100760.00
2022-12-11T23:27:16.874Z,100745.00
2022-12-11T23:29:45.863Z,100738.00
2022-12-11T23:32:14.546Z,100749.00
2022-12-11T23:34:44.656Z,100717.00
2022-12-11T23:37:16.047Z,100735.00
2022-12-11T23:39:47.669Z,100740.00
2022-12-11T23:42:16.520Z,100737.00
2022-12-11T23:44:45.461Z,100735.00
2022-12-11T23:47:14.852Z,100727.00
2022-12-11T23:49:48.581Z,100721.00
2022-12-11T23:52:20.689Z,100714.00
2022-12-11T23:54:55.154Z,100719.00
2022-12-11T23:57:24.553Z,100705.00
2022-12-11T23:59:54.529Z,100711.00
